»·PEaware :: N313JG L52-L88

N313JG :: L52-L88

FLIGHT INFORMATION

Flight Status: Arrived
Operator: Privately registered:
United States
More flights under this callsign
Pilot: Justin G. (15222)
Aircraft: CESSNA 172 SKYHAWK
(C172)
More flights by this aircraft type
Origin: L52 Oceano Co
United States
Destination: L88 New Cuyama
United States
More flights between these airports :: More routes between these airports
Route:
File this flight plan on PilotEdge
Remarks:
Altitude:
(Current/Filed)
7,500ft
Speed:
(Current/Filed)
120kts
Departed: 08-Jan-18 03:22 PM
Arrived: 08-Jan-18 03:54 PM
Distance/Time
Traveled:
47nm/0:32
Distance/Time
To Go:
Arrived

Flight Plot

Page will automatically refresh every two minutes.


Map Options




Map Legend


Flown Route
Filed Route
Departure Airport
Arrival Airport
Navaid (VOR, NDB)
Fix

Horizontal Profiles

Position Reports

Time Latitude Longitude Heading Altitude Ground
Speed
08-Jan-18 15:10 35.103170 -120.623697 34 17ft 0kts
08-Jan-18 15:11 35.103170 -120.623697 34 17ft 0kts
08-Jan-18 15:12 35.103170 -120.623697 34 17ft 0kts
08-Jan-18 15:13 35.103171 -120.623697 34 17ft 0kts
08-Jan-18 15:16 35.103399 -120.623873 34 17ft 0kts
08-Jan-18 15:17 35.103400 -120.623872 34 17ft 0kts
08-Jan-18 15:18 35.103402 -120.623870 34 17ft 0kts
08-Jan-18 15:19 35.103403 -120.623870 34 17ft 0kts
08-Jan-18 15:20 35.103403 -120.623870 34 17ft 0kts
08-Jan-18 15:21 35.102948 -120.623829 126 17ft 6kts
08-Jan-18 15:22 35.102644 -120.623777 216 17ft 0kts
08-Jan-18 15:23 35.102250 -120.624134 216 17ft 13kts
08-Jan-18 15:24 35.100139 -120.620862 125 17ft 16kts
08-Jan-18 15:25 35.099385 -120.619197 34 17ft 0kts
08-Jan-18 15:26 35.099385 -120.619197 34 17ft 0kts
08-Jan-18 15:27 35.099385 -120.619197 34 17ft 0kts
08-Jan-18 15:28 35.106473 -120.629245 342 278ft 71kts
08-Jan-18 15:29 35.109497 -120.609382 102 1191ft 70kts
08-Jan-18 15:30 35.106216 -120.585732 96 2015ft 71kts
08-Jan-18 15:31 35.101046 -120.562075 113 2796ft 73kts
08-Jan-18 15:32 35.091554 -120.539887 114 3544ft 74kts
08-Jan-18 15:33 35.083957 -120.516267 109 4248ft 75kts
08-Jan-18 15:34 35.077227 -120.491629 105 4919ft 76kts
08-Jan-18 15:35 35.071398 -120.466233 107 5532ft 78kts
08-Jan-18 15:36 35.065484 -120.439977 85 5974ft 95kts
08-Jan-18 15:37 35.068929 -120.408828 82 6560ft 87kts
08-Jan-18 15:38 35.066272 -120.378821 101 6997ft 92kts
08-Jan-18 15:39 35.060633 -120.347747 102 7403ft 94kts
08-Jan-18 15:40 35.054309 -120.313669 103 7505ft 113kts
08-Jan-18 15:41 35.047220 -120.275514 103 7500ft 116kts
08-Jan-18 15:42 35.040147 -120.237240 102 7497ft 111kts
08-Jan-18 15:43 35.033449 -120.200904 103 7499ft 109kts
08-Jan-18 15:44 35.026462 -120.163358 103 7500ft 116kts
08-Jan-18 15:45 35.019285 -120.124799 103 7500ft 116kts
08-Jan-18 15:46 35.012127 -120.086356 103 7500ft 116kts
08-Jan-18 15:47 35.004931 -120.047771 103 7500ft 116kts
08-Jan-18 15:48 34.997749 -120.009331 103 7500ft 116kts
08-Jan-18 15:49 34.990587 -119.971053 103 7429ft 113kts
08-Jan-18 15:50 34.983563 -119.933528 103 7292ft 114kts
08-Jan-18 15:51 34.976378 -119.895354 103 7094ft 116kts
08-Jan-18 15:52 34.969150 -119.856965 103 6700ft 114kts
08-Jan-18 15:53 34.962113 -119.819558 103 6043ft 111kts
08-Jan-18 15:54 34.954999 -119.781947 103 5105ft 115kts
08-Jan-18 15:55 34.947809 -119.743934 103 3774ft 114kts
08-Jan-18 15:56 34.938471 -119.710077 117 2954ft 99kts
08-Jan-18 15:57 34.925489 -119.682604 121 3098ft 91kts
08-Jan-18 15:58 34.917139 -119.655113 56 3206ft 91kts
08-Jan-18 15:59 34.931894 -119.673024 290 2555ft 97kts
08-Jan-18 16:00 34.939255 -119.693038 298 2206ft 22kts
08-Jan-18 16:01 34.940568 -119.694178 201 2206ft 0kts
08-Jan-18 16:02 34.940568 -119.694178 201 2206ft 0kts

Navigation Log

Ident Type
Flight plan parsing failed, navigation log unavailable